Time;durP1;ratioP1;P1;durP2;ratioP2;P2;SDS_P1;SDS_P2;PMS_P1;PMS_P2;Temp;Humidity;BMP_temperature;BMP_pressure;BME280_temperature;BME280_humidity;BME280_pressure;Samples;Min_cycle;Max_cycle;Signal;HPM_P1;HPM_P2
2023/01/05 07:31:57;;;;;;;;;3.00;1.00;;;;;18.14;50.45;102215.53;5102523;27;46383;-69
2023/01/05 07:34:22;;;;;;;;;0.00;0.00;;;;;18.49;51.41;102209.75;5107089;27;45453;-70
2023/01/05 07:36:48;;;;;;;;;0.00;0.00;;;;;19.05;51.82;102214.19;5105201;27;45545;-70
2023/01/05 07:39:14;;;;;;;;;0.00;0.00;;;;;19.67;51.78;102213.66;5102591;27;45887;-69
2023/01/05 07:41:40;;;;;;;;;1.00;0.00;;;;;20.22;51.66;102211.63;5120998;27;47835;-72
2023/01/05 07:44:06;;;;;;;;;2.00;0.67;;;;;20.76;51.23;102205.97;5111021;27;45386;-72
2023/01/05 07:46:31;;;;;;;;;1.00;1.00;;;;;21.24;51.22;102201.50;5112270;27;45315;-73
2023/01/05 07:48:57;;;;;;;;;2.67;0.00;;;;;21.82;50.60;102214.19;5127747;27;45559;-74
2023/01/05 07:51:23;;;;;;;;;0.00;0.00;;;;;22.06;50.39;102183.47;5105911;27;45783;-74
2023/01/05 07:53:48;;;;;;;;;1.00;1.00;;;;;22.71;49.91;102223.38;5106901;27;45347;-76
2023/01/05 07:56:13;;;;;;;;;1.00;0.33;;;;;23.07;50.09;102221.28;5111477;27;45526;-73
2023/01/05 07:58:41;;;;;;;;;1.00;1.00;;;;;23.44;49.55;102222.75;5098567;27;45535;-69
2023/01/05 08:01:09;;;;;;;;;0.00;0.00;;;;;23.72;48.87;102227.59;5104830;27;45580;-75
2023/01/05 08:03:34;;;;;;;;;2.00;0.00;;;;;23.94;48.74;102227.44;5112951;27;45686;-71
2023/01/05 08:06:11;;;;;;;;;0.00;0.00;;;;;24.15;48.54;102231.16;5110747;27;45818;-72
2023/01/05 08:08:36;;;;;;;;;1.00;1.00;;;;;24.25;48.25;102214.88;5111332;27;45535;-71
2023/01/05 08:11:03;;;;;;;;;0.00;0.00;;;;;24.50;48.01;102223.50;5110232;27;46099;-73
2023/01/05 08:16:13;;;;;;;;;2.00;0.00;;;;;24.83;47.49;102233.19;5109613;27;45724;-74
2023/01/05 08:18:38;;;;;;;;;0.00;0.00;;;;;24.97;47.50;102233.78;5104617;27;45563;-73
2023/01/05 08:21:04;;;;;;;;;1.00;1.00;;;;;25.13;47.20;102234.06;5112214;27;45615;-70
2023/01/05 08:23:31;;;;;;;;;2.00;0.67;;;;;25.20;47.16;102228.91;5117262;27;45401;-71
2023/01/05 08:26:01;;;;;;;;;0.00;0.00;;;;;25.34;47.04;102248.50;5110626;27;45482;-70
2023/01/05 08:28:26;;;;;;;;;0.00;0.00;;;;;25.41;46.83;102243.34;5126761;27;45518;-70
2023/01/05 08:30:52;;;;;;;;;1.00;1.00;;;;;25.48;46.39;102244.47;5109690;27;45896;-70
2023/01/05 08:33:17;;;;;;;;;1.00;0.00;;;;;25.55;46.27;102244.72;5110219;27;48690;-71
2023/01/05 08:35:44;;;;;;;;;0.00;0.00;;;;;25.60;46.13;102243.34;5115058;27;45425;-70
2023/01/05 08:38:10;;;;;;;;;0.00;0.00;;;;;25.65;46.05;102243.75;5110647;27;45506;-71
2023/01/05 08:40:37;;;;;;;;;1.33;1.00;;;;;25.75;46.02;102242.88;5113147;27;46442;-71
2023/01/05 08:43:04;;;;;;;;;1.00;0.00;;;;;25.82;45.58;102234.97;5100724;27;45465;-71
2023/01/05 08:45:30;;;;;;;;;2.00;1.00;;;;;25.88;45.99;102237.09;5097080;27;45756;-72
2023/01/05 08:47:55;;;;;;;;;0.00;0.00;;;;;25.94;45.82;102236.50;5110557;27;45489;-71
2023/01/05 08:50:20;;;;;;;;;2.67;1.00;;;;;26.04;45.51;102245.47;5112055;27;46342;-73
2023/01/05 08:52:46;;;;;;;;;0.00;0.00;;;;;26.08;45.16;102246.06;5099344;27;45577;-75
2023/01/05 08:55:11;;;;;;;;;1.33;0.00;;;;;26.14;44.98;102240.00;5098904;27;45467;-73
2023/01/05 08:57:37;;;;;;;;;0.33;0.33;;;;;26.17;45.02;102250.56;5105603;27;45475;-74
2023/01/05 09:00:04;;;;;;;;;1.67;0.00;;;;;26.15;44.73;102236.25;5096420;27;45649;-74
2023/01/05 09:02:30;;;;;;;;;1.67;0.33;;;;;26.20;45.12;102246.72;5076937;27;45442;-76
2023/01/05 09:04:55;;;;;;;;;2.00;1.00;;;;;26.21;44.63;102248.44;5096753;27;45445;-76
2023/01/05 09:07:21;;;;;;;;;0.00;0.00;;;;;26.23;45.09;102249.13;5100773;27;45426;-72
2023/01/05 09:09:46;;;;;;;;;2.00;0.00;;;;;26.25;44.73;102246.28;5098601;27;46082;-73
2023/01/05 09:12:12;;;;;;;;;2.67;0.00;;;;;26.29;44.97;102245.81;5113346;27;45651;-72
2023/01/05 09:14:37;;;;;;;;;1.00;1.00;;;;;26.36;44.94;102254.22;5089164;27;46072;-72
2023/01/05 09:17:02;;;;;;;;;0.67;0.67;;;;;26.39;44.54;102247.63;5092655;27;45439;-70
2023/01/05 09:19:28;;;;;;;;;0.33;0.33;;;;;26.39;44.87;102234.88;5098667;27;46276;-71
2023/01/05 09:21:53;;;;;;;;;0.00;0.00;;;;;26.50;44.29;102250.16;5103173;27;45486;-73
2023/01/05 09:24:18;;;;;;;;;1.00;1.00;;;;;26.56;44.67;102243.22;5093498;27;45714;-73
2023/01/05 09:26:44;;;;;;;;;1.33;1.00;;;;;26.57;44.44;102243.09;5095779;27;45792;-73
2023/01/05 09:29:11;;;;;;;;;0.67;0.67;;;;;26.63;43.87;102241.63;5095541;27;47042;-72
2023/01/05 09:31:36;;;;;;;;;1.33;0.00;;;;;26.62;43.82;102247.22;5096933;27;45727;-70
2023/01/05 09:34:02;;;;;;;;;0.00;0.00;;;;;26.60;43.89;102247.38;5088875;27;45468;-71
2023/01/05 09:36:28;;;;;;;;;0.67;0.67;;;;;26.55;44.19;102242.41;5096730;27;45371;-71
2023/01/05 09:38:55;;;;;;;;;0.00;0.00;;;;;26.58;43.85;102243.94;5084832;27;45437;-71
2023/01/05 09:41:33;;;;;;;;;1.00;0.00;;;;;26.54;43.92;102251.56;5093109;27;45375;-71
2023/01/05 09:44:05;;;;;;;;;0.00;0.00;;;;;26.56;43.64;102251.41;5096456;27;45810;-71
2023/01/05 09:46:37;;;;;;;;;0.67;0.33;;;;;26.58;43.70;102260.28;5095923;27;45391;-69
2023/01/05 09:49:05;;;;;;;;;1.00;1.00;;;;;26.57;43.66;102258.59;5094533;27;45735;-73
2023/01/05 09:51:31;;;;;;;;;1.00;1.00;;;;;26.57;43.60;102253.97;5096232;27;45505;-72
2023/01/05 09:53:59;;;;;;;;;0.33;0.33;;;;;26.58;43.74;102257.56;5095018;27;45451;-73
2023/01/05 09:56:26;;;;;;;;;1.67;1.00;;;;;26.62;43.31;102249.94;5100453;27;46041;-69
2023/01/05 09:58:55;;;;;;;;;1.00;1.00;;;;;26.68;43.84;102252.03;5093670;27;45611;-69
2023/01/05 10:01:21;;;;;;;;;1.00;1.00;;;;;26.72;43.26;102253.44;5090256;27;45431;-69
2023/01/05 10:03:52;;;;;;;;;0.00;0.00;;;;;26.81;43.14;102257.13;5095298;27;45682;-68
2023/01/05 10:06:20;;;;;;;;;0.00;0.00;;;;;26.86;43.01;102256.66;5099449;27;45338;-69
2023/01/05 10:08:49;;;;;;;;;0.00;0.00;;;;;26.89;43.21;102262.66;5090613;27;45713;-68
2023/01/05 10:14:29;;;;;;;;;1.00;0.00;;;;;26.93;42.71;102257.78;5094090;27;45499;-68
2023/01/05 10:16:55;;;;;;;;;0.00;0.00;;;;;26.94;42.56;102259.50;5093767;27;45431;-66
2023/01/05 10:19:20;;;;;;;;;1.00;0.00;;;;;26.93;42.94;102266.81;5092451;27;46045;-68
2023/01/05 10:22:05;;;;;;;;;1.00;1.00;;;;;26.94;42.96;102262.22;5086639;27;45338;-68
2023/01/05 10:24:44;;;;;;;;;0.00;0.00;;;;;26.97;42.98;102264.63;5095171;27;45275;-68
2023/01/05 10:27:21;;;;;;;;;0.67;0.67;;;;;27.01;42.53;102266.03;5093261;27;45481;-69
2023/01/05 10:29:52;;;;;;;;;0.00;0.00;;;;;27.01;43.03;102260.59;5088568;27;45519;-70
2023/01/05 10:33:09;;;;;;;;;0.33;0.33;;;;;26.90;42.50;102266.25;5090329;27;45421;-70
2023/01/05 10:35:37;;;;;;;;;0.00;0.00;;;;;26.76;42.32;102262.19;5086131;27;45505;-70
2023/01/05 10:38:34;;;;;;;;;0.00;0.00;;;;;26.63;42.84;102255.25;5094744;27;45437;-71
2023/01/05 10:41:22;;;;;;;;;0.67;0.67;;;;;26.64;43.31;102265.13;5095103;27;45409;-71
2023/01/05 10:44:31;;;;;;;;;0.00;0.00;;;;;26.63;42.76;102255.25;5083802;27;45421;-68
2023/01/05 10:46:57;;;;;;;;;1.33;0.00;;;;;26.63;42.55;102252.50;5053157;28;45933;-67
2023/01/05 10:49:33;;;;;;;;;0.33;0.33;;;;;26.64;42.92;102251.50;5035958;28;45700;-67
2023/01/05 10:52:00;;;;;;;;;0.00;0.00;;;;;26.67;43.09;102256.66;5050726;28;46025;-67
2023/01/05 10:54:44;;;;;;;;;0.00;0.00;;;;;26.68;42.41;102254.75;5051952;28;45679;-67
2023/01/05 10:57:27;;;;;;;;;0.00;0.00;;;;;26.67;42.53;102244.88;5051115;28;45396;-67
2023/01/05 11:00:03;;;;;;;;;0.00;0.00;;;;;26.46;43.09;102221.53;5049455;28;45815;-69
2023/01/05 11:02:37;;;;;;;;;1.00;1.00;;;;;26.43;42.46;102200.03;5050129;28;46294;-69
2023/01/05 11:05:22;;;;;;;;;1.00;1.00;;;;;26.53;42.57;102217.16;5050723;28;45508;-69
2023/01/05 11:07:52;;;;;;;;;1.00;1.00;;;;;26.66;43.17;102241.31;5049087;28;45521;-68
2023/01/05 11:10:33;;;;;;;;;1.00;1.00;;;;;26.67;43.19;102234.88;5050541;28;45587;-70
2023/01/05 11:13:16;;;;;;;;;1.67;0.00;;;;;26.62;43.23;102229.03;5048594;28;46748;-70
2023/01/05 11:15:49;;;;;;;;;0.00;0.00;;;;;26.62;42.63;102228.16;5050972;28;45565;-72
2023/01/05 11:18:29;;;;;;;;;0.33;0.33;;;;;26.59;42.93;102223.88;5044209;28;45483;-71
2023/01/05 11:21:13;;;;;;;;;0.00;0.00;;;;;26.61;42.42;102216.44;5071533;27;45572;-72
2023/01/05 11:23:44;;;;;;;;;0.00;0.00;;;;;26.63;42.76;102214.41;5093275;27;46900;-71
2023/01/05 11:26:18;;;;;;;;;0.00;0.00;;;;;26.69;42.79;102210.22;5090543;27;45478;-72
2023/01/05 11:29:01;;;;;;;;;0.67;0.67;;;;;26.75;42.42;102209.56;5089398;27;45425;-71
2023/01/05 11:31:33;;;;;;;;;1.67;0.00;;;;;26.78;42.43;102211.13;5094477;27;45589;-71
2023/01/05 11:34:06;;;;;;;;;0.00;0.00;;;;;26.75;42.30;102208.72;5098927;27;45503;-72
2023/01/05 11:36:32;;;;;;;;;0.00;0.00;;;;;26.82;42.50;102210.66;5093697;27;45667;-68
2023/01/05 11:38:58;;;;;;;;;1.00;1.00;;;;;26.80;42.78;102209.09;5093866;27;45459;-68
2023/01/05 11:41:24;;;;;;;;;0.00;0.00;;;;;26.77;42.70;102204.81;5086754;27;45453;-69
2023/01/05 11:43:53;;;;;;;;;0.00;0.00;;;;;26.79;42.30;102207.38;5085586;27;45502;-69
2023/01/05 11:46:19;;;;;;;;;0.33;0.33;;;;;26.79;42.83;102197.38;5093391;27;45471;-70
2023/01/05 11:48:52;;;;;;;;;1.00;0.00;;;;;26.81;42.58;102205.38;5092944;27;45455;-68
2023/01/05 11:51:36;;;;;;;;;0.67;0.33;;;;;26.79;42.65;102196.50;5102491;27;45580;-69
2023/01/05 11:54:01;;;;;;;;;1.00;0.33;;;;;26.81;42.58;102192.59;5092923;27;45532;-69
2023/01/05 11:56:27;;;;;;;;;0.00;0.00;;;;;26.78;42.22;102198.38;5104182;27;45390;-69
2023/01/05 11:58:54;;;;;;;;;1.00;0.00;;;;;26.81;42.47;102195.34;5089037;27;45587;-70
2023/01/05 12:01:20;;;;;;;;;1.00;1.00;;;;;26.84;42.74;102191.44;5092292;27;45545;-69
2023/01/05 12:03:52;;;;;;;;;0.00;0.00;;;;;26.84;41.93;102195.03;5093666;27;45598;-69
2023/01/05 12:06:30;;;;;;;;;1.33;1.00;;;;;26.83;42.43;102200.63;5092510;27;45402;-70
2023/01/05 12:09:21;;;;;;;;;1.00;1.00;;;;;26.76;41.99;102194.94;5113900;27;45528;-73
2023/01/05 12:11:53;;;;;;;;;0.67;0.67;;;;;26.52;41.62;102165.63;5097737;27;45512;-68
2023/01/05 12:14:54;;;;;;;;;3.00;1.00;;;;;26.61;42.40;102183.75;5087424;27;45532;-67
2023/01/05 12:17:31;;;;;;;;;2.00;0.00;;;;;26.60;42.38;102186.63;5094543;27;45522;-69
2023/01/05 12:20:28;;;;;;;;;0.00;0.00;;;;;26.61;41.72;102180.16;5104552;27;45504;-68
2023/01/05 12:23:10;;;;;;;;;1.00;1.00;;;;;26.62;42.40;102170.97;5087949;27;45484;-68
2023/01/05 12:25:54;;;;;;;;;1.00;1.00;;;;;26.66;42.08;102175.09;5090107;27;45952;-68
2023/01/05 12:28:50;;;;;;;;;1.00;1.00;;;;;26.66;41.51;102170.53;5080623;27;45588;-70
2023/01/05 12:31:18;;;;;;;;;1.33;1.00;;;;;26.70;41.80;102177.34;5089261;27;45425;-69
2023/01/05 12:33:56;;;;;;;;;2.00;0.00;;;;;26.71;42.04;102175.50;5094501;27;45596;-69
2023/01/05 12:36:40;;;;;;;;;2.67;1.67;;;;;26.70;41.63;102174.63;5083896;27;46075;-69
2023/01/05 12:39:34;;;;;;;;;2.00;1.00;;;;;26.66;42.16;102170.53;5092691;27;45427;-70
2023/01/05 12:42:14;;;;;;;;;1.00;1.00;;;;;26.63;41.58;102161.78;5081001;27;45382;-72
2023/01/05 12:45:06;;;;;;;;;1.00;1.00;;;;;26.68;41.81;102168.50;5112746;27;45430;-72
2023/01/05 12:47:55;;;;;;;;;2.00;2.00;;;;;26.69;41.64;102164.75;5096637;27;45485;-71
2023/01/05 12:50:36;;;;;;;;;1.67;1.67;;;;;26.73;41.81;102175.34;5095619;27;45891;-72
2023/01/05 12:53:16;;;;;;;;;1.33;1.00;;;;;26.75;41.99;102162.41;5096745;27;45476;-69
2023/01/05 12:55:50;;;;;;;;;1.00;1.00;;;;;26.80;41.64;102162.78;5088662;27;45422;-69
2023/01/05 12:58:31;;;;;;;;;1.00;1.00;;;;;26.87;41.98;102144.81;5093211;27;45523;-70
2023/01/05 13:00:59;;;;;;;;;1.67;1.67;;;;;26.86;41.47;102144.97;5096842;27;45497;-69
2023/01/05 13:03:40;;;;;;;;;1.00;1.00;;;;;26.94;41.53;102143.19;5089018;27;45504;-70
2023/01/05 13:06:17;;;;;;;;;1.00;1.00;;;;;26.99;42.11;102144.59;5093189;27;45517;-70
2023/01/05 13:08:54;;;;;;;;;2.00;2.00;;;;;27.02;41.39;102145.13;5097047;27;45918;-71
2023/01/05 13:11:43;;;;;;;;;1.67;1.00;;;;;27.05;41.66;102117.56;5094986;27;45499;-72
2023/01/05 13:14:15;;;;;;;;;2.00;0.33;;;;;27.08;41.66;102138.19;5093774;27;46462;-68
2023/01/05 13:16:51;;;;;;;;;2.00;1.00;;;;;27.00;41.44;102113.59;5094756;27;45809;-68
2023/01/05 13:19:37;;;;;;;;;1.00;1.00;;;;;27.06;41.93;102122.00;5084104;27;46661;-69
2023/01/05 13:22:09;;;;;;;;;1.00;1.00;;;;;27.06;41.93;102124.72;5081756;27;45520;-70
2023/01/05 13:24:43;;;;;;;;;2.00;2.00;;;;;27.04;41.60;102117.72;5088176;27;45409;-69
2023/01/05 13:27:11;;;;;;;;;0.67;0.67;;;;;26.98;41.80;102113.78;5093486;27;45325;-71
2023/01/05 13:29:45;;;;;;;;;1.00;1.00;;;;;27.05;42.00;102123.03;5096273;27;45520;-71
2023/01/05 13:32:31;;;;;;;;;0.33;0.33;;;;;27.12;41.85;102127.81;5102550;27;45573;-69
2023/01/05 13:35:13;;;;;;;;;1.00;1.00;;;;;27.13;41.16;102122.22;5095192;27;45435;-69
2023/01/05 13:37:38;;;;;;;;;0.33;0.33;;;;;27.14;41.87;102117.63;5090662;27;45401;-69
2023/01/05 13:40:33;;;;;;;;;0.67;0.67;;;;;27.14;41.40;102123.94;5083621;27;45569;-69
2023/01/05 13:42:58;;;;;;;;;1.00;0.67;;;;;27.13;41.83;102113.22;5093416;27;46085;-70
2023/01/05 13:45:42;;;;;;;;;1.67;1.00;;;;;27.12;41.86;102123.25;5095238;27;45444;-70
2023/01/05 13:48:29;;;;;;;;;0.00;0.00;;;;;27.12;41.35;102122.38;5096625;27;45468;-69
2023/01/05 13:51:36;;;;;;;;;2.33;0.67;;;;;27.15;41.80;102119.34;5095143;27;45473;-69
2023/01/05 13:54:09;;;;;;;;;0.67;0.67;;;;;27.14;41.56;102118.47;5070743;28;45408;-69
2023/01/05 13:56:38;;;;;;;;;2.00;2.00;;;;;27.13;41.37;102113.22;5073539;28;45759;-69
2023/01/05 13:59:27;;;;;;;;;0.33;0.33;;;;;27.13;41.88;102119.50;5067865;28;45634;-70
2023/01/05 14:01:55;;;;;;;;;0.67;0.33;;;;;27.08;41.19;102122.72;5068427;28;45544;-69
2023/01/05 14:04:32;;;;;;;;;2.00;1.00;;;;;27.05;41.55;102116.75;5072231;28;45454;-70
2023/01/05 14:07:05;;;;;;;;;2.67;0.67;;;;;27.03;41.60;102125.06;5072833;28;45548;-70
2023/01/05 14:09:38;;;;;;;;;1.00;1.00;;;;;27.02;41.27;102131.50;5065386;28;45523;-72
2023/01/05 14:12:14;;;;;;;;;0.67;0.67;;;;;27.01;41.83;102124.34;5056680;27;46319;-70
2023/01/05 14:15:11;;;;;;;;;2.00;1.00;;;;;27.03;42.01;102124.19;5074325;27;45522;-69
2023/01/05 14:17:51;;;;;;;;;1.00;1.00;;;;;27.08;41.95;102124.56;5077230;27;45534;-69
2023/01/05 14:20:40;;;;;;;;;1.00;1.00;;;;;27.11;41.48;102110.63;5071972;27;45481;-69
2023/01/05 14:23:28;;;;;;;;;1.00;1.00;;;;;27.12;41.31;102122.38;5072067;27;45469;-68
2023/01/05 14:25:56;;;;;;;;;1.00;1.00;;;;;27.07;41.18;102118.28;5072740;27;45529;-68
2023/01/05 14:28:21;;;;;;;;;2.00;1.00;;;;;27.04;41.55;102110.41;5066792;27;45712;-68
2023/01/05 14:30:49;;;;;;;;;0.00;0.00;;;;;27.01;41.65;102104.44;5088728;27;45582;-69
2023/01/05 14:33:17;;;;;;;;;3.00;0.00;;;;;26.97;41.09;102098.44;5087975;27;45478;-69
2023/01/05 14:35:43;;;;;;;;;0.33;0.33;;;;;26.98;41.33;102116.53;5094984;27;45417;-69
2023/01/05 14:38:23;;;;;;;;;1.33;1.33;;;;;26.99;41.73;102110.03;5093590;27;45381;-68
2023/01/05 14:40:55;;;;;;;;;1.00;1.00;;;;;27.00;41.67;102106.31;5094471;27;45385;-68
2023/01/05 14:43:20;;;;;;;;;1.67;1.67;;;;;27.03;41.70;102110.56;5090246;27;45466;-69
2023/01/05 14:46:00;;;;;;;;;0.67;0.67;;;;;27.07;41.21;102120.16;5090507;27;45483;-71
2023/01/05 14:48:51;;;;;;;;;1.00;0.00;;;;;27.10;41.98;102119.84;5087270;27;45506;-69
2023/01/05 14:51:25;;;;;;;;;0.00;0.00;;;;;27.16;41.48;102110.16;5094635;27;45450;-69
2023/01/05 14:53:53;;;;;;;;;1.33;1.33;;;;;27.16;41.89;102115.59;5095198;27;45956;-69
2023/01/05 14:56:22;;;;;;;;;0.00;0.00;;;;;27.19;41.78;102112.56;5096103;27;45422;-68
2023/01/05 14:58:56;;;;;;;;;0.33;0.33;;;;;27.19;41.89;102116.16;5088849;27;45498;-69
2023/01/05 15:01:32;;;;;;;;;1.00;1.00;;;;;27.22;41.16;102104.06;5094366;27;45442;-69
2023/01/05 15:04:10;;;;;;;;;1.00;1.00;;;;;27.28;41.38;102108.88;5093609;27;45461;-69
2023/01/05 15:07:04;;;;;;;;;2.00;0.00;;;;;27.36;41.16;102108.06;5094351;27;45663;-69
2023/01/05 15:09:45;;;;;;;;;1.00;1.00;;;;;27.40;41.64;102103.13;5048181;28;45472;-67
2023/01/05 15:12:58;;;;;;;;;0.00;0.00;;;;;27.38;41.60;102107.91;5048215;28;45515;-69
2023/01/05 15:15:27;;;;;;;;;0.33;0.33;;;;;27.34;41.56;102110.94;5048938;28;45381;-70
2023/01/05 15:18:30;;;;;;;;;0.33;0.33;;;;;27.28;41.57;102111.59;5050504;28;46597;-69
2023/01/05 15:21:05;;;;;;;;;0.00;0.00;;;;;27.16;41.41;102105.56;5051920;28;45433;-69
2023/01/05 15:23:56;;;;;;;;;1.00;1.00;;;;;26.98;40.61;102113.78;5050876;28;46562;-69
2023/01/05 15:26:33;;;;;;;;;0.67;0.67;;;;;26.78;40.35;102107.63;4996290;28;45459;-69
2023/01/05 15:29:16;;;;;;;;;0.67;0.33;;;;;26.66;40.71;102124.22;4979510;28;45627;-69
2023/01/05 15:31:55;;;;;;;;;0.00;0.00;;;;;26.50;40.52;102121.34;4991450;28;45826;-68
2023/01/05 15:34:28;;;;;;;;;0.33;0.33;;;;;26.37;40.74;102130.75;4991476;28;45855;-69
2023/01/05 15:37:09;;;;;;;;;0.00;0.00;;;;;26.25;41.07;102124.69;4995063;28;48261;-69
2023/01/05 15:39:52;;;;;;;;;1.67;1.67;;;;;26.13;40.62;102121.28;4991578;28;45783;-74
2023/01/05 15:42:41;;;;;;;;;1.33;1.33;;;;;26.08;40.40;102122.75;4994621;28;46074;-73
2023/01/05 15:45:16;;;;;;;;;3.00;1.00;;;;;26.02;40.68;102124.22;4991737;28;45445;-72
2023/01/05 15:47:42;;;;;;;;;2.67;2.67;;;;;25.94;40.41;102121.41;5027252;28;45425;-73
2023/01/05 15:50:17;;;;;;;;;2.00;2.00;;;;;25.84;40.95;102111.44;5030053;28;45430;-73
2023/01/05 15:52:54;;;;;;;;;3.00;1.00;;;;;25.85;40.45;102117.72;5028984;28;45416;-74
2023/01/05 15:55:20;;;;;;;;;3.00;2.00;;;;;25.81;40.47;102117.16;5030222;28;45721;-71
2023/01/05 15:57:56;;;;;;;;;4.00;4.00;;;;;25.74;40.62;102116.03;5017543;28;46837;-72
2023/01/05 16:00:28;;;;;;;;;6.33;5.33;;;;;25.51;40.70;102078.38;5031946;28;45512;-70
2023/01/05 16:03:32;;;;;;;;;9.00;7.33;;;;;25.69;40.96;102110.22;5050233;27;47100;-70
2023/01/05 16:06:07;;;;;;;;;6.67;6.67;;;;;25.51;41.05;102078.38;5092720;27;45360;-69
2023/01/05 16:08:40;;;;;;;;;10.00;10.00;;;;;25.59;40.88;102100.22;5092574;27;46463;-71
2023/01/05 16:11:08;;;;;;;;;11.00;5.33;;;;;25.60;41.02;102110.13;5096577;27;45790;-68
2023/01/05 16:13:56;;;;;;;;;5.33;4.33;;;;;25.58;40.74;102103.13;5096672;27;45667;-69
2023/01/05 16:16:36;;;;;;;;;8.00;7.00;;;;;25.57;40.68;102102.25;5098189;27;45516;-70
2023/01/05 16:19:09;;;;;;;;;7.67;6.00;;;;;25.57;41.02;102110.41;5090733;27;45615;-75
2023/01/05 16:21:40;;;;;;;;;13.67;8.00;;;;;25.58;40.89;102103.13;5095816;27;46214;-70
2023/01/05 16:24:21;;;;;;;;;11.33;7.67;;;;;25.62;40.92;102101.78;5095974;27;45486;-73
2023/01/05 16:26:46;;;;;;;;;17.00;12.33;;;;;25.69;40.96;102096.63;5093775;27;45490;-70
2023/01/05 16:29:19;;;;;;;;;13.67;11.33;;;;;25.76;41.54;102097.72;5101747;27;45349;-72
2023/01/05 16:31:53;;;;;;;;;15.33;13.33;;;;;25.78;41.19;102093.84;5093761;27;45678;-71
2023/01/05 16:34:19;;;;;;;;;15.00;11.67;;;;;25.88;41.12;102104.66;5101130;27;45563;-72
2023/01/05 16:37:01;;;;;;;;;12.33;9.00;;;;;25.98;40.94;102114.63;5095726;27;45478;-72
2023/01/05 16:39:34;;;;;;;;;9.00;8.00;;;;;26.09;41.15;102113.56;5100281;27;46162;-73
2023/01/05 16:42:30;;;;;;;;;10.67;9.33;;;;;26.17;40.92;102113.69;5094444;27;45721;-73
2023/01/05 16:44:57;;;;;;;;;11.00;8.00;;;;;26.21;41.14;102111.50;5101325;27;45390;-73
2023/01/05 16:47:36;;;;;;;;;9.00;9.00;;;;;26.25;41.27;102108.38;5098899;27;45595;-73
2023/01/05 16:50:36;;;;;;;;;10.67;6.67;;;;;26.29;41.48;102111.63;5100764;27;46269;-72
2023/01/05 16:53:09;;;;;;;;;5.67;3.00;;;;;26.30;41.18;102097.88;5089519;27;45443;-72
2023/01/05 16:55:36;;;;;;;;;10.00;8.33;;;;;26.32;41.31;102094.97;5096680;27;45422;-72
2023/01/05 16:58:05;;;;;;;;;15.67;8.00;;;;;26.34;41.52;102092.09;5097058;27;45480;-75
2023/01/05 17:00:36;;;;;;;;;10.00;5.67;;;;;26.35;41.37;102091.94;5098113;27;46494;-71
2023/01/05 17:03:22;;;;;;;;;8.00;6.33;;;;;26.37;41.41;102098.09;5096461;27;45501;-78
2023/01/05 17:05:50;;;;;;;;;9.00;7.00;;;;;26.40;40.98;102084.16;5104049;27;45905;-73
2023/01/05 17:08:19;;;;;;;;;11.33;6.67;;;;;26.42;41.47;102084.88;5094241;27;45453;-73
2023/01/05 17:10:45;;;;;;;;;9.00;6.67;;;;;26.40;40.82;102088.78;5093453;27;46322;-74
2023/01/05 17:13:20;;;;;;;;;8.67;6.33;;;;;26.41;41.50;102085.88;5095524;27;45991;-73
2023/01/05 17:15:47;;;;;;;;;6.33;5.00;;;;;26.42;41.40;102095.78;5096416;27;45505;-76
2023/01/05 17:18:17;;;;;;;;;4.00;2.00;;;;;26.42;40.95;102094.91;5104079;27;45499;-75
2023/01/05 17:20:44;;;;;;;;;1.33;1.33;;;;;26.36;41.43;102088.19;5105566;27;45917;-73
2023/01/05 17:23:23;;;;;;;;;4.33;2.00;;;;;26.35;40.73;102096.56;5099682;27;45521;-76
2023/01/05 17:25:50;;;;;;;;;4.33;3.00;;;;;26.29;41.04;102096.13;5086910;27;45465;-75
2023/01/05 17:28:16;;;;;;;;;2.50;2.00;;;;;26.25;41.06;102102.91;5104530;27;45385;-77
2023/01/05 17:30:42;;;;;;;;;7.67;2.67;;;;;26.20;40.61;102101.63;5085876;27;47965;-78
2023/01/05 17:33:08;;;;;;;;;3.33;3.33;;;;;26.08;40.80;102096.41;5093386;27;45421;-74
2023/01/05 17:35:34;;;;;;;;;3.00;3.00;;;;;26.02;40.55;102089.72;5094092;27;45296;-73
2023/01/05 17:38:00;;;;;;;;;2.33;2.33;;;;;25.99;40.44;102091.88;5095126;27;45808;-73
2023/01/05 17:40:27;;;;;;;;;5.33;3.67;;;;;25.99;40.17;102097.34;5093701;27;45438;-73
2023/01/05 17:42:53;;;;;;;;;6.00;3.00;;;;;25.99;40.81;102100.06;5093129;27;45532;-74
2023/01/05 17:45:22;;;;;;;;;4.00;2.33;;;;;25.98;40.77;102095.59;5094944;27;45364;-75
2023/01/05 17:47:49;;;;;;;;;4.00;1.00;;;;;25.99;40.93;102100.06;5096440;27;45340;-74
2023/01/05 17:50:21;;;;;;;;;6.00;3.00;;;;;26.01;40.86;102096.16;5094458;27;45439;-73
2023/01/05 17:52:46;;;;;;;;;4.00;2.67;;;;;26.02;41.19;102094.28;5095143;27;45355;-73
2023/01/05 17:55:12;;;;;;;;;1.67;0.33;;;;;26.01;41.00;102084.41;5095256;27;45409;-76
2023/01/05 17:57:38;;;;;;;;;3.67;3.67;;;;;26.02;40.93;102087.00;5095966;27;45510;-73
2023/01/05 18:00:06;;;;;;;;;3.00;3.00;;;;;26.04;41.20;102082.25;5093666;27;45500;-73
2023/01/05 18:02:31;;;;;;;;;3.33;2.33;;;;;26.09;41.13;102091.81;5094475;27;45491;-73
2023/01/05 18:04:57;;;;;;;;;5.00;3.33;;;;;26.08;40.60;102085.53;5094215;27;45834;-74
2023/01/05 18:07:22;;;;;;;;;3.67;3.00;;;;;26.10;41.34;102080.78;5095011;27;45520;-73
2023/01/05 18:09:47;;;;;;;;;2.00;2.00;;;;;26.10;40.93;102088.06;5095438;27;46033;-76
2023/01/05 18:12:13;;;;;;;;;2.33;2.33;;;;;26.08;40.83;102088.25;5094964;27;45788;-73
2023/01/05 18:14:38;;;;;;;;;2.00;2.00;;;;;26.11;40.86;102087.09;5090416;27;48571;-73
2023/01/05 18:17:04;;;;;;;;;4.33;2.33;;;;;26.12;41.22;102075.19;5089580;27;45628;-73
2023/01/05 18:19:29;;;;;;;;;6.00;4.33;;;;;26.12;40.90;102080.63;5094741;27;47054;-73
2023/01/05 18:21:55;;;;;;;;;2.00;2.00;;;;;26.06;41.00;102060.31;5095974;27;45418;-73
2023/01/05 18:24:20;;;;;;;;;3.33;2.67;;;;;26.11;41.11;102071.59;5094513;27;45617;-73
2023/01/05 18:26:48;;;;;;;;;3.67;2.33;;;;;26.10;40.72;102069.91;5096045;27;45394;-74
2023/01/05 18:29:14;;;;;;;;;2.00;2.00;;;;;26.12;41.39;102067.88;5091542;27;46206;-78
2023/01/05 18:31:39;;;;;;;;;5.00;3.00;;;;;26.12;41.28;102067.88;5092572;27;45939;-74
2023/01/05 18:34:05;;;;;;;;;4.00;2.00;;;;;26.11;40.97;102057.16;5091870;27;46057;-76
2023/01/05 18:36:30;;;;;;;;;2.00;2.00;;;;;26.11;40.86;102065.31;5093260;27;45539;-77
2023/01/05 18:38:55;;;;;;;;;3.33;3.33;;;;;26.10;41.34;102056.28;5091216;27;45855;-74
2023/01/05 18:41:23;;;;;;;;;3.33;3.00;;;;;26.16;40.79;102052.13;5091783;27;52051;-74
2023/01/05 18:43:48;;;;;;;;;4.00;3.00;;;;;26.17;40.95;102056.53;5085624;27;45587;-73
2023/01/05 18:46:13;;;;;;;;;1.00;1.00;;;;;26.15;40.47;102056.69;5106132;27;45618;-74
2023/01/05 18:48:38;;;;;;;;;3.00;2.00;;;;;26.16;40.87;102057.56;5092691;27;46614;-74
2023/01/05 18:51:06;;;;;;;;;3.00;1.67;;;;;26.16;41.29;102065.72;5093234;27;45428;-74
2023/01/05 18:53:32;;;;;;;;;3.00;3.00;;;;;26.13;41.34;102057.84;5092852;27;45506;-74
2023/01/05 18:55:57;;;;;;;;;2.33;2.00;;;;;26.14;41.22;102057.69;5093864;27;45314;-74
2023/01/05 18:58:22;;;;;;;;;1.00;1.00;;;;;26.12;41.27;102059.69;5091542;27;48086;-74
2023/01/05 19:00:48;;;;;;;;;2.00;2.00;;;;;26.15;41.13;102066.69;5090930;27;53614;-74
2023/01/05 19:03:13;;;;;;;;;3.00;2.00;;;;;26.14;40.58;102067.72;5088183;27;45383;-74
2023/01/05 19:05:40;;;;;;;;;4.00;2.00;;;;;26.13;40.89;102056.00;5091183;27;45363;-74
2023/01/05 19:08:07;;;;;;;;;1.67;1.67;;;;;26.11;40.86;102058.00;5093032;27;45469;-74
2023/01/05 19:10:33;;;;;;;;;2.00;2.00;;;;;26.05;41.12;102054.06;5092894;27;45410;-74
2023/01/05 19:12:58;;;;;;;;;4.00;4.00;;;;;26.05;40.73;102058.63;5091072;27;45400;-74
2023/01/05 19:15:23;;;;;;;;;3.00;2.00;;;;;26.02;41.13;102043.47;5091221;27;45740;-74
2023/01/05 19:17:52;;;;;;;;;1.00;1.00;;;;;26.04;41.01;102065.09;5094791;27;46285;-73
2023/01/05 19:20:17;;;;;;;;;3.00;3.00;;;;;26.02;40.62;102067.94;5089584;27;45790;-74
2023/01/05 19:22:44;;;;;;;;;5.33;2.33;;;;;25.99;40.78;102061.97;5107308;27;46086;-74
2023/01/05 19:25:10;;;;;;;;;2.00;2.00;;;;;25.93;40.84;102066.16;5093579;27;45506;-74
2023/01/05 19:27:36;;;;;;;;;2.00;2.00;;;;;25.87;40.35;102066.75;5094020;27;45590;-73